Time;durP1;ratioP1;P1;durP2;ratioP2;P2;SDS_P1;SDS_P2;PMS_P1;PMS_P2;Temp;Humidity;BMP_temperature;BMP_pressure;BME280_temperature;BME280_humidity;BME280_pressure;Samples;Min_cycle;Max_cycle;Signal;HPM_P1;HPM_P2
2022/08/11 00:01:15;;;;;;;5.85;3.50;;;22.90;93.40;;;;;;5064537;28;20202;-68
2022/08/11 00:03:48;;;;;;;3.70;3.35;;;22.90;93.50;;;;;;5063648;28;20429;-68
2022/08/11 00:06:36;;;;;;;5.13;3.55;;;22.90;93.50;;;;;;5060493;28;20222;-68
2022/08/11 00:09:08;;;;;;;5.18;3.53;;;22.70;93.70;;;;;;5060939;28;20210;-68
2022/08/11 00:11:41;;;;;;;3.78;3.35;;;22.60;93.70;;;;;;5061444;28;20222;-68
2022/08/11 00:14:25;;;;;;;6.63;3.63;;;22.60;93.70;;;;;;5064081;28;20199;-67
2022/08/11 00:17:13;;;;;;;4.60;3.28;;;22.60;93.70;;;;;;5063888;28;20226;-68
2022/08/11 00:19:44;;;;;;;3.92;3.22;;;22.60;93.80;;;;;;5062681;28;20190;-68
2022/08/11 00:22:33;;;;;;;4.80;3.25;;;22.50;93.90;;;;;;5060659;28;20634;-68
2022/08/11 00:25:17;;;;;;;7.22;3.72;;;22.40;93.90;;;;;;5055198;28;20232;-69
2022/08/11 00:27:46;;;;;;;7.18;3.80;;;22.40;94.00;;;;;;5062305;28;20600;-67
2022/08/11 00:30:14;;;;;;;7.53;3.70;;;22.40;94.10;;;;;;5057695;28;20201;-68
2022/08/11 00:32:44;;;;;;;4.30;3.20;;;22.40;94.10;;;;;;5062630;28;20205;-67
2022/08/11 00:35:15;;;;;;;5.78;3.40;;;22.30;94.20;;;;;;5059643;28;20225;-68
2022/08/11 00:38:02;;;;;;;6.35;3.63;;;22.10;94.40;;;;;;5047286;28;20597;-68
2022/08/11 00:40:52;;;;;;;5.65;3.15;;;22.20;94.40;;;;;;5059967;28;20195;-69
2022/08/11 00:43:40;;;;;;;6.10;3.67;;;22.10;94.60;;;;;;5059926;28;20205;-68
2022/08/11 00:46:25;;;;;;;5.35;3.53;;;21.90;94.80;;;;;;5062410;28;20229;-68
2022/08/11 00:49:07;;;;;;;5.43;3.38;;;21.70;94.90;;;;;;5061128;28;20206;-68
2022/08/11 00:52:09;;;;;;;7.63;3.95;;;21.50;95.30;;;;;;5059994;28;20198;-68
2022/08/11 00:54:38;;;;;;;3.77;3.47;;;21.40;95.60;;;;;;5062773;28;20187;-68
2022/08/11 00:57:25;;;;;;;4.23;3.43;;;21.40;95.50;;;;;;5059621;28;20226;-68
2022/08/11 01:00:25;;;;;;;4.93;3.70;;;21.20;96.10;;;;;;5059298;28;20249;-68
2022/08/11 01:03:23;;;;;;;6.10;3.60;;;21.10;96.20;;;;;;5061808;28;20654;-67
2022/08/11 01:06:32;;;;;;;3.97;3.10;;;21.00;96.60;;;;;;5059255;28;20709;-68
2022/08/11 01:09:24;;;;;;;4.60;4.10;;;20.80;96.90;;;;;;5054143;28;20689;-67
2022/08/11 01:12:19;;;;;;;5.40;3.63;;;20.70;96.80;;;;;;5052264;28;20198;-68
2022/08/11 01:15:04;;;;;;;4.07;3.40;;;20.60;97.00;;;;;;5050287;28;20211;-68
2022/08/11 01:18:07;;;;;;;4.03;3.50;;;20.50;97.20;;;;;;5050430;28;20219;-68
2022/08/11 01:20:50;;;;;;;5.40;3.43;;;20.40;97.60;;;;;;5050547;28;20614;-68
2022/08/11 01:23:51;;;;;;;4.63;3.50;;;20.20;97.80;;;;;;5032850;28;20665;-69
2022/08/11 01:26:56;;;;;;;4.03;3.40;;;20.10;98.00;;;;;;5050294;28;20614;-68
2022/08/11 01:29:53;;;;;;;4.60;3.63;;;20.10;98.10;;;;;;5050503;28;20252;-68
2022/08/11 01:32:48;;;;;;;4.97;3.87;;;20.30;97.90;;;;;;5050622;28;20253;-68
2022/08/11 01:35:39;;;;;;;3.40;3.10;;;20.30;97.80;;;;;;5049948;28;20277;-68
2022/08/11 01:38:31;;;;;;;5.10;3.50;;;20.30;97.80;;;;;;5050239;28;20760;-68
2022/08/11 01:44:36;;;;;;;5.17;3.67;;;20.20;98.60;;;;;;5050280;28;20195;-68
2022/08/11 01:44:47;;;;;;;4.20;3.80;;;20.10;98.20;;;;;;5049821;28;20296;-67
2022/08/11 01:47:51;;;;;;;3.73;3.23;;;20.20;98.40;;;;;;5050180;28;20607;-68
2022/08/11 01:50:25;;;;;;;4.23;3.30;;;20.10;98.30;;;;;;5049884;28;20576;-68
2022/08/11 01:53:03;;;;;;;6.87;3.93;;;20.30;98.00;;;;;;5049742;28;20253;-67
2022/08/11 01:55:56;;;;;;;5.40;3.60;;;20.40;98.00;;;;;;5065290;28;20226;-68
2022/08/11 01:58:48;;;;;;;6.27;3.77;;;20.40;97.90;;;;;;5069990;28;20706;-67
2022/08/11 02:01:33;;;;;;;4.67;3.90;;;20.60;97.80;;;;;;5069447;28;20194;-69
2022/08/11 02:04:33;;;;;;;4.63;3.93;;;20.40;98.00;;;;;;5049913;28;20234;-69
2022/08/11 02:07:16;;;;;;;5.77;3.80;;;20.30;98.50;;;;;;5049590;28;20252;-68
2022/08/11 02:13:28;;;;;;;5.40;3.97;;;20.20;98.70;;;;;;5049684;28;20202;-67
2022/08/11 02:16:38;;;;;;;5.37;3.57;;;20.00;99.20;;;;;;5051448;28;20344;-68
2022/08/11 02:25:10;;;;;;;6.23;3.93;;;19.60;99.90;;;;;;5055870;28;20624;-68
2022/08/11 02:28:08;;;;;;;5.17;3.97;;;19.60;99.90;;;;;;5056051;28;20200;-68
2022/08/11 02:30:40;;;;;;;4.40;4.00;;;19.50;99.90;;;;;;5021176;28;20301;-68
2022/08/11 02:33:23;;;;;;;4.47;4.03;;;19.40;99.90;;;;;;5056181;28;20194;-68
2022/08/11 02:36:09;;;;;;;4.70;3.83;;;19.20;99.90;;;;;;5055499;28;20218;-68
2022/08/11 02:38:59;;;;;;;6.83;4.43;;;19.20;99.90;;;;;;5056305;28;20252;-68
2022/08/11 02:45:15;;;;;;;6.23;3.70;;;19.10;99.90;;;;;;5055537;28;20218;-67
2022/08/11 02:51:23;;;;;;;5.33;3.77;;;19.10;99.90;;;;;;5056331;28;20203;-68
2022/08/11 02:54:14;;;;;;;4.93;3.67;;;19.00;99.90;;;;;;5063629;28;20623;-68
2022/08/11 02:56:44;;;;;;;5.47;3.87;;;19.20;99.90;;;;;;5055547;28;20847;-68
2022/08/11 02:59:51;;;;;;;5.93;4.10;;;19.20;99.90;;;;;;5055950;28;20264;-67
2022/08/11 03:02:24;;;;;;;6.40;3.87;;;19.00;99.90;;;;;;5056014;28;20191;-67
2022/08/11 03:05:09;;;;;;;4.47;3.57;;;18.70;99.90;;;;;;5055466;28;20223;-68
2022/08/11 03:07:46;;;;;;;4.10;3.70;;;18.50;99.90;;;;;;5056047;28;20270;-68
2022/08/11 03:10:28;;;;;;;6.37;3.80;;;18.40;99.90;;;;;;5056699;28;20199;-67
2022/08/11 03:19:20;;;;;;;4.10;3.70;;;18.10;99.90;;;;;;5064496;28;20189;-68
2022/08/11 03:21:58;;;;;;;4.23;3.53;;;18.00;99.90;;;;;;5070836;28;20227;-67
2022/08/11 03:24:43;;;;;;;6.20;3.97;;;18.00;99.90;;;;;;5075595;28;20198;-67
2022/08/11 03:27:38;;;;;;;4.97;4.30;;;18.00;99.90;;;;;;5054789;28;20195;-67
2022/08/11 03:30:14;;;;;;;4.50;3.93;;;18.00;99.90;;;;;;5034674;28;20240;-68
2022/08/11 03:36:08;;;;;;;5.33;4.20;;;17.90;99.90;;;;;;5052103;28;20219;-68
2022/08/11 03:38:56;;;;;;;5.80;3.90;;;17.80;99.90;;;;;;5052826;28;20238;-67
2022/08/11 03:41:43;;;;;;;7.77;3.80;;;17.90;99.90;;;;;;5052646;28;20194;-67
2022/08/11 03:45:09;;;;;;;6.23;4.10;;;17.90;99.90;;;;;;5052128;28;20259;-68
2022/08/11 03:47:57;;;;;;;5.80;4.13;;;17.90;99.90;;;;;;5052304;28;20214;-66
2022/08/11 03:50:42;;;;;;;4.40;3.93;;;18.00;99.90;;;;;;5052273;28;20253;-68
2022/08/11 03:53:19;;;;;;;5.00;3.97;;;18.10;99.90;;;;;;5052940;28;20256;-68
2022/08/11 03:56:19;;;;;;;5.57;4.43;;;18.10;99.90;;;;;;5051700;28;20268;-68
2022/08/11 03:59:24;;;;;;;7.30;4.50;;;18.20;99.90;;;;;;5051833;28;20670;-68
2022/08/11 04:02:15;;;;;;;4.87;4.20;;;18.20;99.90;;;;;;5052687;28;20497;-67
2022/08/11 04:05:24;;;;;;;4.33;3.83;;;18.40;99.90;;;;;;5054069;28;20199;-67
2022/08/11 04:08:15;;;;;;;5.77;3.70;;;18.30;99.90;;;;;;5051369;28;20689;-67
2022/08/11 04:11:13;;;;;;;4.30;3.90;;;18.30;99.90;;;;;;5051681;28;20202;-68
2022/08/11 04:17:35;;;;;;;6.10;3.80;;;18.10;99.90;;;;;;5051500;28;20214;-66
2022/08/11 04:20:28;;;;;;;4.40;3.67;;;18.20;99.90;;;;;;5051372;28;20195;-68
2022/08/11 04:23:10;;;;;;;5.40;4.13;;;18.30;99.90;;;;;;5051590;28;20206;-68
2022/08/11 04:26:07;;;;;;;7.47;4.43;;;18.40;99.90;;;;;;5051336;28;20214;-66
2022/08/11 04:28:53;;;;;;;6.93;4.03;;;18.40;99.90;;;;;;5051214;28;20293;-68
2022/08/11 04:31:37;;;;;;;4.70;4.17;;;18.40;99.90;;;;;;5039027;28;20202;-67
2022/08/11 04:34:25;;;;;;;6.87;4.20;;;18.40;99.90;;;;;;5051404;28;20246;-68
2022/08/11 04:39:59;;;;;;;6.30;4.10;;;18.30;99.90;;;;;;5051516;28;20328;-67
2022/08/11 04:46:01;;;;;;;5.80;4.20;;;18.40;99.90;;;;;;5050823;28;20277;-67
2022/08/11 05:02:17;;;;;;;4.63;3.90;;;18.40;99.90;;;;;;5014859;28;20194;-67
2022/08/11 05:08:22;;;;;;;6.20;4.20;;;18.40;99.90;;;;;;5050878;28;20257;-68
2022/08/11 05:11:14;;;;;;;5.43;4.00;;;18.60;99.90;;;;;;5017156;28;20294;-67
2022/08/11 05:34:55;;;;;;;4.27;3.57;;;19.10;99.90;;;;;;5051206;28;20210;-68
2022/08/11 05:37:28;;;;;;;4.57;3.63;;;19.20;99.90;;;;;;5050739;28;20614;-68
2022/08/11 05:57:34;;;;;;;7.43;3.97;;;20.90;99.90;;;;;;5049815;28;20218;-69
2022/08/11 06:00:18;;;;;;;4.67;3.80;;;21.00;99.90;;;;;;5049666;28;20230;-68
2022/08/11 06:02:54;;;;;;;3.93;3.50;;;21.20;99.90;;;;;;5049730;28;20230;-68
2022/08/11 06:05:22;;;;;;;9.60;4.30;;;21.20;99.90;;;;;;5049607;28;20217;-67
2022/08/11 06:07:54;;;;;;;7.07;3.83;;;21.10;99.90;;;;;;5049949;28;20277;-67
2022/08/11 06:10:32;;;;;;;7.73;3.60;;;21.10;99.90;;;;;;5050031;28;20226;-68
2022/08/11 06:12:59;;;;;;;8.10;3.90;;;21.10;99.90;;;;;;5049888;28;20241;-68
2022/08/11 06:15:29;;;;;;;4.70;3.67;;;21.10;99.90;;;;;;5049853;28;20305;-68
2022/08/11 06:17:57;;;;;;;6.70;3.70;;;21.20;99.90;;;;;;5050665;28;20223;-67
2022/08/11 06:20:24;;;;;;;8.53;3.80;;;21.40;99.90;;;;;;5050098;28;20197;-67
2022/08/11 06:22:57;;;;;;;4.43;3.30;;;21.50;99.90;;;;;;5049695;28;20274;-67
2022/08/11 06:25:34;;;;;;;8.45;4.50;;;21.60;99.90;;;;;;5049328;28;20222;-68
2022/08/11 06:28:07;;;;;;;6.88;3.40;;;21.80;99.90;;;;;;5049712;28;20191;-67
2022/08/11 06:30:39;;;;;;;6.20;3.50;;;22.10;99.70;;;;;;5063230;28;20190;-67
2022/08/11 06:33:10;;;;;;;9.07;3.63;;;22.20;99.30;;;;;;5069680;28;20197;-68
2022/08/11 06:35:44;;;;;;;7.80;3.38;;;22.40;99.10;;;;;;5068905;28;20552;-67
2022/08/11 06:38:48;;;;;;;5.15;3.35;;;22.70;98.40;;;;;;5054328;28;20226;-68
2022/08/11 06:41:31;;;;;;;6.07;3.80;;;22.80;98.60;;;;;;5049557;28;20202;-67
2022/08/11 06:44:12;;;;;;;6.47;3.65;;;22.90;98.30;;;;;;5049061;28;20564;-67
2022/08/11 06:46:41;;;;;;;10.18;3.40;;;23.10;98.30;;;;;;5034414;28;20293;-68
2022/08/11 06:52:02;;;;;;;10.48;3.47;;;23.40;97.20;;;;;;5049319;28;20202;-68
2022/08/11 06:54:34;;;;;;;4.13;3.10;;;23.60;96.90;;;;;;5052860;28;20202;-67
2022/08/11 07:02:59;;;;;;;5.05;3.13;;;24.00;96.30;;;;;;5061643;28;20199;-68
2022/08/11 07:05:52;;;;;;;5.07;3.20;;;24.30;96.10;;;;;;5053072;28;20217;-68
2022/08/11 07:17:21;;;;;;;7.07;3.30;;;25.60;94.70;;;;;;5052640;28;20229;-68
2022/08/11 07:31:23;;;;;;;5.85;3.30;;;27.20;92.90;;;;;;5052595;28;20206;-68
2022/08/11 07:34:05;;;;;;;8.38;2.95;;;27.20;92.50;;;;;;5052579;28;20217;-68
2022/08/11 07:36:43;;;;;;;4.30;3.03;;;27.10;92.30;;;;;;5052252;28;20306;-69
2022/08/11 07:39:17;;;;;;;8.15;3.20;;;27.00;92.70;;;;;;5052377;28;20230;-69
2022/08/11 07:41:46;;;;;;;8.88;3.00;;;27.20;92.60;;;;;;5052381;28;20195;-68
2022/08/11 07:44:15;;;;;;;9.85;3.15;;;27.40;92.30;;;;;;5051908;28;20194;-65
2022/08/11 07:52:33;;;;;;;6.65;3.33;;;27.50;92.20;;;;;;5052270;28;20674;-68
2022/08/11 07:55:05;;;;;;;8.85;3.50;;;27.20;92.10;;;;;;5037240;28;20237;-68
2022/08/11 08:17:52;;;;;;;5.80;3.00;;;27.00;92.70;;;;;;5051666;28;20203;-69
2022/08/11 08:20:45;;;;;;;4.32;2.97;;;27.00;92.50;;;;;;5051382;28;20248;-69
2022/08/11 08:23:13;;;;;;;8.30;3.05;;;27.00;92.50;;;;;;5051556;28;20203;-69
2022/08/11 08:25:42;;;;;;;4.25;3.00;;;26.90;92.60;;;;;;5051266;28;20219;-69
2022/08/11 08:28:13;;;;;;;4.40;2.92;;;27.00;92.60;;;;;;5051294;28;20639;-69
2022/08/11 08:30:54;;;;;;;7.75;3.20;;;27.10;92.50;;;;;;5051529;28;20195;-69
2022/08/11 08:33:26;;;;;;;4.28;3.08;;;27.20;92.40;;;;;;5051268;28;20201;-68
2022/08/11 08:36:11;;;;;;;7.88;3.20;;;27.40;92.30;;;;;;5051101;28;20288;-67
2022/08/11 08:38:42;;;;;;;6.47;3.30;;;27.50;92.10;;;;;;5051105;28;20215;-68
2022/08/11 08:41:11;;;;;;;5.63;3.08;;;27.60;92.10;;;;;;5038762;28;20197;-69
2022/08/11 08:43:44;;;;;;;6.30;3.00;;;27.70;92.10;;;;;;5051290;28;20214;-68
2022/08/11 08:46:19;;;;;;;7.13;3.53;;;27.50;92.00;;;;;;5033757;28;20631;-68
2022/08/11 08:48:47;;;;;;;5.60;3.08;;;27.20;92.30;;;;;;5050728;28;20570;-69
2022/08/11 08:51:34;;;;;;;6.93;3.10;;;27.30;92.40;;;;;;5050775;28;20548;-68
2022/08/11 08:54:29;;;;;;;5.18;3.22;;;27.40;92.40;;;;;;5050970;28;20205;-70
2022/08/11 08:56:56;;;;;;;3.80;3.00;;;27.60;92.20;;;;;;5050159;28;20263;-69
2022/08/11 08:59:26;;;;;;;6.43;3.40;;;27.70;92.10;;;;;;5051242;28;20219;-68
2022/08/11 09:02:13;;;;;;;7.30;2.83;;;27.60;92.00;;;;;;5051113;28;20253;-69
2022/08/11 09:04:43;;;;;;;5.28;3.33;;;27.40;92.40;;;;;;5050618;28;20198;-69
2022/08/11 09:07:22;;;;;;;5.57;3.33;;;27.50;92.30;;;;;;5050516;28;20658;-68
2022/08/11 09:09:51;;;;;;;8.52;3.35;;;27.50;92.20;;;;;;5050504;28;20217;-69
2022/08/11 09:12:19;;;;;;;9.93;3.28;;;27.60;92.20;;;;;;5050921;28;20195;-69
2022/08/11 09:15:08;;;;;;;6.40;3.00;;;27.90;92.10;;;;;;5050278;28;20237;-68
2022/08/11 09:17:50;;;;;;;4.60;3.10;;;27.90;91.90;;;;;;5050573;28;20208;-68
2022/08/11 09:20:27;;;;;;;6.63;3.40;;;27.80;92.10;;;;;;5050483;28;20195;-68
2022/08/11 09:28:57;;;;;;;3.88;3.17;;;28.10;91.50;;;;;;5070917;28;20247;-68
2022/08/11 09:31:25;;;;;;;5.43;3.00;;;28.00;92.00;;;;;;5056958;28;20191;-69
2022/08/11 09:33:54;;;;;;;5.68;3.58;;;28.20;91.60;;;;;;5050702;28;20206;-68
2022/08/11 09:41:54;;;;;;;8.77;2.90;;;28.30;91.30;;;;;;5051350;28;20217;-69
2022/08/11 09:44:47;;;;;;;4.20;3.10;;;28.10;91.60;;;;;;5049894;28;20203;-69
2022/08/11 09:47:20;;;;;;;6.22;2.95;;;28.10;91.20;;;;;;5059848;28;20193;-69
2022/08/11 09:49:47;;;;;;;3.10;2.80;;;28.40;91.30;;;;;;5056245;28;20198;-68
2022/08/11 09:52:17;;;;;;;9.23;3.20;;;28.70;91.20;;;;;;5050070;28;20191;-68
2022/08/11 09:54:47;;;;;;;10.65;3.75;;;28.90;90.90;;;;;;5049675;28;20203;-69
2022/08/11 10:00:08;;;;;;;4.47;3.42;;;29.40;90.20;;;;;;5049848;28;20247;-67
2022/08/11 10:02:43;;;;;;;7.90;3.10;;;29.00;89.80;;;;;;5050243;28;20221;-69
2022/08/11 10:08:00;;;;;;;4.72;3.40;;;28.90;90.50;;;;;;5049665;28;20191;-68
2022/08/11 10:10:28;;;;;;;8.68;3.17;;;29.00;90.50;;;;;;5049664;28;20198;-68
2022/08/11 10:13:04;;;;;;;4.57;3.08;;;29.10;90.40;;;;;;5050099;28;20218;-69
2022/08/11 10:15:55;;;;;;;6.28;3.05;;;29.40;89.40;;;;;;5049385;28;20618;-69
2022/08/11 10:18:51;;;;;;;7.40;3.60;;;29.50;89.70;;;;;;5049609;28;20218;-67
2022/08/11 10:21:42;;;;;;;7.40;2.92;;;29.80;89.00;;;;;;5049662;28;20602;-69
2022/08/11 10:27:01;;;;;;;7.70;2.70;;;29.80;85.30;;;;;;5049640;28;20202;-69
2022/08/11 10:35:27;;;;;;;5.78;2.85;;;30.10;85.60;;;;;;5049134;28;20214;-69
2022/08/11 10:37:55;;;;;;;4.65;2.72;;;30.20;85.90;;;;;;5052267;28;20195;-68
2022/08/11 10:40:38;;;;;;;4.10;3.03;;;30.40;85.90;;;;;;5053632;28;20667;-69
2022/08/11 10:43:12;;;;;;;4.63;3.05;;;30.60;85.30;;;;;;5053350;28;20278;-69
2022/08/11 10:48:35;;;;;;;6.97;2.85;;;30.80;85.10;;;;;;5053541;28;20190;-68
2022/08/11 10:51:12;;;;;;;5.40;2.67;;;30.60;84.00;;;;;;5053527;28;20206;-68
2022/08/11 10:59:17;;;;;;;5.22;2.70;;;30.50;84.90;;;;;;5054422;28;20223;-68
2022/08/11 11:01:45;;;;;;;3.03;2.53;;;30.80;84.40;;;;;;5073353;28;20472;-69
2022/08/11 11:04:19;;;;;;;3.22;2.78;;;30.90;84.30;;;;;;5072347;28;20612;-69
2022/08/11 11:06:58;;;;;;;3.58;2.90;;;31.10;84.00;;;;;;5056932;28;20635;-69
2022/08/11 11:09:57;;;;;;;4.53;2.67;;;31.20;83.80;;;;;;5053291;28;20199;-68
2022/08/11 11:18:14;;;;;;;3.65;2.83;;;31.40;82.20;;;;;;5053209;28;20214;-69
2022/08/11 11:20:46;;;;;;;6.03;2.70;;;31.50;81.60;;;;;;5053283;28;20412;-69
2022/08/11 11:23:26;;;;;;;6.43;2.92;;;31.50;82.50;;;;;;5052606;28;20590;-69
2022/08/11 11:26:10;;;;;;;3.88;2.80;;;31.30;81.70;;;;;;5052514;28;20218;-69
2022/08/11 11:29:01;;;;;;;4.65;2.42;;;31.40;80.90;;;;;;5052962;28;20720;-69
2022/08/11 11:31:51;;;;;;;6.93;2.88;;;31.40;81.50;;;;;;5036629;28;20593;-69
2022/08/11 11:34:36;;;;;;;5.97;2.80;;;31.10;82.30;;;;;;5052548;28;20195;-69
2022/08/11 11:37:19;;;;;;;3.67;2.83;;;31.20;82.00;;;;;;5052492;28;20695;-66
2022/08/11 11:39:46;;;;;;;3.40;2.50;;;31.30;81.30;;;;;;5052524;28;20211;-67
2022/08/11 11:42:15;;;;;;;5.10;2.80;;;30.90;81.70;;;;;;5061641;28;20198;-68
2022/08/11 11:44:43;;;;;;;3.08;2.67;;;30.80;82.60;;;;;;5072064;28;20806;-69
2022/08/11 11:47:15;;;;;;;3.90;2.83;;;30.80;82.50;;;;;;5072454;28;20198;-69
2022/08/11 11:49:43;;;;;;;2.78;2.58;;;31.00;82.60;;;;;;5035879;28;20202;-69
2022/08/11 11:52:17;;;;;;;3.20;2.70;;;31.20;81.90;;;;;;5052335;28;20198;-69
2022/08/11 11:54:53;;;;;;;3.88;2.60;;;31.40;81.70;;;;;;5051934;28;20684;-69
2022/08/11 12:03:10;;;;;;;6.32;2.70;;;30.90;82.40;;;;;;5052178;28;20654;-67
2022/08/11 12:05:39;;;;;;;6.15;2.67;;;30.60;83.10;;;;;;5051495;28;20568;-68
2022/08/11 12:08:16;;;;;;;5.45;3.03;;;30.60;82.20;;;;;;5052575;28;20194;-69
2022/08/11 12:13:39;;;;;;;5.65;2.83;;;30.60;82.30;;;;;;5052526;28;20195;-69
2022/08/11 12:13:46;;;;;;;5.53;3.35;;;30.70;83.90;;;;;;5051680;28;20210;-70
2022/08/11 12:16:14;;;;;;;3.35;2.80;;;30.80;82.00;;;;;;5051478;28;20230;-69
2022/08/11 12:19:04;;;;;;;4.95;3.00;;;31.00;83.10;;;;;;5051802;28;20640;-68
2022/08/11 12:21:33;;;;;;;4.20;2.92;;;31.00;82.70;;;;;;5070678;28;20688;-68
2022/08/11 12:29:34;;;;;;;2.90;2.60;;;31.50;81.70;;;;;;5051439;28;20253;-68
2022/08/11 12:32:06;;;;;;;7.13;3.00;;;31.80;81.60;;;;;;5048484;28;20195;-69
2022/08/11 12:34:33;;;;;;;4.68;3.10;;;31.90;80.90;;;;;;5071227;28;20248;-69
2022/08/11 12:37:04;;;;;;;4.15;3.00;;;31.80;81.00;;;;;;5071741;28;20229;-69
2022/08/11 12:45:37;;;;;;;3.35;2.95;;;31.40;81.10;;;;;;5051169;28;20734;-69
2022/08/11 12:54:38;;;;;;;3.78;3.20;;;31.50;81.00;;;;;;5051044;28;20194;-69
2022/08/11 13:05:38;;;;;;;5.38;3.17;;;31.70;79.10;;;;;;5050465;28;20210;-69
2022/08/11 13:08:13;;;;;;;3.20;2.90;;;31.70;80.00;;;;;;5051167;28;20191;-69
2022/08/11 13:13:27;;;;;;;4.35;3.22;;;31.80;79.20;;;;;;5055408;28;20277;-68
2022/08/11 13:16:15;;;;;;;6.05;3.25;;;31.80;79.60;;;;;;5035695;28;20230;-69
2022/08/11 13:18:43;;;;;;;6.00;2.90;;;31.90;79.20;;;;;;5032854;28;20202;-68
2022/08/11 13:21:11;;;;;;;6.82;3.17;;;31.80;79.70;;;;;;5050168;28;20187;-69
2022/08/11 13:23:51;;;;;;;4.55;3.13;;;31.90;79.30;;;;;;5051037;28;20233;-68
2022/08/11 13:26:36;;;;;;;5.40;3.05;;;31.90;78.80;;;;;;5050071;28;20686;-68
2022/08/11 13:29:21;;;;;;;5.15;3.20;;;32.00;78.80;;;;;;5053363;28;20194;-68
2022/08/11 13:31:50;;;;;;;4.22;3.10;;;31.70;79.40;;;;;;5050883;28;20202;-69
2022/08/11 13:34:18;;;;;;;3.97;3.22;;;31.80;79.60;;;;;;5050487;28;20206;-68
2022/08/11 13:36:50;;;;;;;3.50;3.10;;;32.00;79.40;;;;;;5051170;28;20214;-69
2022/08/11 13:39:19;;;;;;;4.50;3.25;;;32.20;79.40;;;;;;5050330;28;20218;-69
2022/08/11 13:41:49;;;;;;;4.80;3.20;;;32.20;79.40;;;;;;5050421;28;20226;-68
2022/08/11 13:44:17;;;;;;;3.45;3.10;;;32.30;77.50;;;;;;5050239;28;20202;-69
2022/08/11 13:46:54;;;;;;;6.15;2.90;;;32.20;78.10;;;;;;5050198;28;20620;-68
2022/08/11 13:49:21;;;;;;;5.50;3.13;;;32.20;79.10;;;;;;5050315;28;20281;-69
2022/08/11 13:51:48;;;;;;;3.13;2.83;;;32.10;77.40;;;;;;5050304;28;20203;-68
2022/08/11 13:54:30;;;;;;;3.50;3.05;;;32.10;77.00;;;;;;5050011;28;20199;-68
2022/08/11 13:57:03;;;;;;;7.70;3.15;;;32.00;77.30;;;;;;5050255;28;20195;-69
2022/08/11 13:59:40;;;;;;;4.90;3.28;;;31.80;77.60;;;;;;5033400;28;20643;-69
2022/08/11 14:02:24;;;;;;;3.83;3.42;;;31.90;78.00;;;;;;5050325;28;20197;-69
2022/08/11 14:05:08;;;;;;;4.10;3.47;;;32.00;77.00;;;;;;5033054;28;20241;-69
2022/08/11 14:07:39;;;;;;;6.47;3.40;;;32.00;77.00;;;;;;5069910;28;20197;-69
2022/08/11 14:10:09;;;;;;;5.00;3.40;;;32.10;77.20;;;;;;5070568;28;20197;-69
2022/08/11 14:15:31;;;;;;;3.50;3.20;;;32.40;76.10;;;;;;5049415;28;20219;-69
2022/08/11 14:18:06;;;;;;;3.42;3.13;;;32.50;76.50;;;;;;5049751;28;20225;-68
2022/08/11 14:23:39;;;;;;;6.38;3.40;;;32.40;75.50;;;;;;5052481;28;20551;-69
2022/08/11 14:26:25;;;;;;;4.63;3.72;;;32.30;76.20;;;;;;5049466;28;20218;-69
2022/08/11 14:29:04;;;;;;;5.85;3.33;;;32.20;76.40;;;;;;5049569;28;20230;-68
2022/08/11 14:31:36;;;;;;;5.15;3.40;;;32.10;76.80;;;;;;5049468;28;20627;-69
2022/08/11 14:34:11;;;;;;;4.18;3.08;;;32.10;76.80;;;;;;5049637;28;20195;-69
2022/08/11 14:36:42;;;;;;;4.03;3.33;;;32.00;77.30;;;;;;5049278;28;20225;-69
2022/08/11 14:39:15;;;;;;;7.90;3.50;;;32.10;76.50;;;;;;5049339;28;20199;-69
2022/08/11 14:47:30;;;;;;;3.42;3.13;;;31.90;75.50;;;;;;5049726;28;20195;-69
2022/08/11 14:49:59;;;;;;;4.95;3.33;;;31.90;76.10;;;;;;5049767;28;20245;-69
2022/08/11 14:52:42;;;;;;;4.63;3.10;;;31.80;75.30;;;;;;5049632;28;20213;-68
2022/08/11 14:57:56;;;;;;;4.72;3.40;;;31.70;76.00;;;;;;5049243;28;20210;-69
2022/08/11 15:00:24;;;;;;;4.13;3.05;;;31.80;75.50;;;;;;5049321;28;20214;-69
2022/08/11 15:03:11;;;;;;;3.95;3.15;;;32.00;75.30;;;;;;5049551;28;20214;-69
2022/08/11 15:05:49;;;;;;;5.32;3.20;;;31.90;74.80;;;;;;5048639;28;20722;-68
2022/08/11 15:08:53;;;;;;;4.60;3.63;;;31.90;75.60;;;;;;5049672;28;20195;-69
2022/08/11 15:14:09;;;;;;;6.30;3.15;;;32.00;74.20;;;;;;5049221;28;20199;-68
2022/08/11 15:19:31;;;;;;;3.70;3.30;;;32.10;74.40;;;;;;5069123;28;20233;-70
2022/08/11 15:24:54;;;;;;;9.88;3.50;;;32.20;74.10;;;;;;5050962;28;20313;-68
2022/08/11 15:38:41;;;;;;;3.63;3.30;;;31.70;75.10;;;;;;5052787;28;20207;-67
2022/08/11 15:46:49;;;;;;;3.90;2.95;;;31.50;75.40;;;;;;5052151;28;20219;-69
2022/08/11 15:49:30;;;;;;;3.53;3.08;;;31.60;75.10;;;;;;5052524;28;20199;-69
2022/08/11 15:52:20;;;;;;;4.03;3.22;;;31.80;75.10;;;;;;5052527;28;20267;-68
2022/08/11 15:54:48;;;;;;;3.40;3.10;;;31.90;75.30;;;;;;5051960;28;20215;-69
2022/08/11 16:05:22;;;;;;;6.32;2.83;;;31.80;73.80;;;;;;5058639;28;20221;-69
2022/08/11 16:08:11;;;;;;;4.65;3.08;;;31.80;74.10;;;;;;5057806;28;20248;-69
2022/08/11 16:10:41;;;;;;;3.95;3.13;;;31.90;75.00;;;;;;5051632;28;20195;-69
2022/08/11 16:18:40;;;;;;;3.58;3.28;;;32.20;73.10;;;;;;5051847;28;20195;-68
2022/08/11 16:21:11;;;;;;;5.10;2.90;;;32.20;74.80;;;;;;5051701;28;20217;-67
2022/08/11 16:24:00;;;;;;;4.35;3.20;;;32.20;74.00;;;;;;5051890;28;20191;-68
2022/08/11 16:26:29;;;;;;;5.45;3.50;;;32.20;73.80;;;;;;5051769;28;20214;-69
2022/08/11 16:29:18;;;;;;;4.30;3.30;;;32.10;74.10;;;;;;5052107;28;20195;-70
2022/08/11 16:32:15;;;;;;;3.38;2.80;;;31.90;74.30;;;;;;5051509;28;20191;-69
2022/08/11 16:40:08;;;;;;;4.63;3.05;;;31.80;74.30;;;;;;5052039;28;20222;-69
2022/08/11 16:48:27;;;;;;;3.83;2.97;;;31.60;75.10;;;;;;5052108;28;20195;-69
2022/08/11 16:51:05;;;;;;;7.65;3.22;;;31.60;75.30;;;;;;5052342;28;20678;-69
2022/08/11 16:53:32;;;;;;;4.07;3.35;;;31.50;75.00;;;;;;5052870;28;20202;-69
2022/08/11 16:56:23;;;;;;;4.10;3.30;;;31.50;75.30;;;;;;5052795;28;20252;-68
2022/08/11 17:01:41;;;;;;;5.53;3.92;;;31.30;75.80;;;;;;5052518;28;20581;-69
2022/08/11 17:13:30;;;;;;;4.75;3.20;;;31.00;76.20;;;;;;5051458;28;20266;-68
2022/08/11 17:16:11;;;;;;;3.35;3.05;;;30.90;76.50;;;;;;5050630;28;20218;-69
2022/08/11 17:18:46;;;;;;;4.07;3.33;;;30.90;76.60;;;;;;5051017;28;20203;-69
2022/08/11 17:21:21;;;;;;;4.47;2.95;;;31.00;76.40;;;;;;5050778;28;20246;-69
2022/08/11 17:23:53;;;;;;;4.18;3.30;;;30.90;76.60;;;;;;5050542;28;20198;-69
2022/08/11 17:26:23;;;;;;;4.25;3.22;;;30.90;76.80;;;;;;5034224;28;20218;-69
2022/08/11 17:28:55;;;;;;;3.40;3.10;;;30.80;77.30;;;;;;5050539;28;20380;-68
2022/08/11 17:36:55;;;;;;;6.93;3.70;;;30.60;77.70;;;;;;5050449;28;20218;-69
2022/08/11 17:39:28;;;;;;;3.55;3.25;;;30.60;77.90;;;;;;5050247;28;20199;-69
2022/08/11 17:50:14;;;;;;;4.03;3.55;;;30.40;78.90;;;;;;5050141;28;20205;-69
2022/08/11 18:01:09;;;;;;;6.82;4.00;;;30.20;79.30;;;;;;5056999;28;20206;-69
2022/08/11 18:03:40;;;;;;;4.20;3.50;;;30.20;79.60;;;;;;5032456;28;20191;-68
2022/08/11 18:06:20;;;;;;;8.95;3.40;;;30.20;79.70;;;;;;5049708;28;20217;-69
